Time;durP1;ratioP1;P1;durP2;ratioP2;P2;SDS_P1;SDS_P2;PMS_P1;PMS_P2;Temp;Humidity;BMP_temperature;BMP_pressure;BME280_temperature;BME280_humidity;BME280_pressure;Samples;Min_cycle;Max_cycle;Signal;HPM_P1;HPM_P2
2023/01/12 00:02:10;;;;;;;8.57;7.75;;;;;;;;;;4984917;28;20304;-82
2023/01/12 00:04:38;;;;;;;9.68;8.68;;;;;;;;;;4967810;28;20500;-82
2023/01/12 00:07:07;;;;;;;9.00;8.15;;;;;;;;;;4984491;28;20571;-81
2023/01/12 00:09:34;;;;;;;13.05;10.00;;;;;;;;;;4992806;28;20115;-82
2023/01/12 00:12:06;;;;;;;13.93;9.07;;;;;;;;;;4984254;28;20050;-81
2023/01/12 00:14:34;;;;;;;9.02;6.90;;;;;;;;;;4986172;28;20050;-81
2023/01/12 00:17:01;;;;;;;7.05;5.85;;;;;;;;;;4982251;28;20060;-81
2023/01/12 00:19:29;;;;;;;6.15;5.55;;;;;;;;;;4985115;28;20652;-82
2023/01/12 00:24:26;;;;;;;10.05;7.53;;;;;;;;;;4970068;28;20058;-81
2023/01/12 00:26:54;;;;;;;9.38;6.93;;;;;;;;;;4984644;28;20050;-81
2023/01/12 00:29:22;;;;;;;6.35;5.70;;;;;;;;;;4972633;28;20062;-82
2023/01/12 00:31:49;;;;;;;11.50;6.53;;;;;;;;;;4981515;28;20038;-81
2023/01/12 00:34:16;;;;;;;8.13;5.90;;;;;;;;;;4987843;28;20046;-82
2023/01/12 00:36:45;;;;;;;8.40;5.82;;;;;;;;;;4984745;28;20063;-81
2023/01/12 00:39:12;;;;;;;8.85;5.80;;;;;;;;;;4987762;28;20169;-81
2023/01/12 00:47:13;;;;;;;5.93;5.25;;;;;;;;;;4965845;28;20042;-81
2023/01/12 00:49:41;;;;;;;5.80;5.20;;;;;;;;;;4984743;28;20488;-81
2023/01/12 00:52:10;;;;;;;7.25;5.15;;;;;;;;;;4986762;28;20038;-82
2023/01/12 00:54:51;;;;;;;8.88;5.07;;;;;;;;;;4980478;28;20042;-83
2023/01/12 00:57:19;;;;;;;5.90;3.70;;;;;;;;;;4985275;28;20093;-81
2023/01/12 00:59:46;;;;;;;8.63;3.50;;;;;;;;;;4991398;28;20488;-81
2023/01/12 01:02:13;;;;;;;5.28;2.75;;;;;;;;;;5006032;23;20049;-79
2023/01/12 01:04:41;;;;;;;5.82;2.28;;;;;;;;;;4997686;28;20038;-80
2023/01/12 01:07:08;;;;;;;2.90;2.70;;;;;;;;;;4984687;28;20050;-80
2023/01/12 01:09:36;;;;;;;8.43;2.97;;;;;;;;;;4989830;28;20044;-80
2023/01/12 01:12:03;;;;;;;6.35;3.33;;;;;;;;;;4981286;28;20045;-80
2023/01/12 01:14:30;;;;;;;4.82;4.30;;;;;;;;;;4970060;28;20117;-80
2023/01/12 01:16:58;;;;;;;6.07;4.15;;;;;;;;;;4964428;28;20368;-79
2023/01/12 01:19:25;;;;;;;4.13;3.75;;;;;;;;;;4970530;28;20058;-80
2023/01/12 01:21:52;;;;;;;7.80;4.57;;;;;;;;;;4959023;28;20061;-79
2023/01/12 01:24:20;;;;;;;7.35;5.00;;;;;;;;;;4960838;28;20076;-79
2023/01/12 01:26:49;;;;;;;7.43;3.85;;;;;;;;;;4967073;28;20047;-80
2023/01/12 01:29:16;;;;;;;7.55;4.00;;;;;;;;;;4959548;28;20038;-80
2023/01/12 01:31:46;;;;;;;5.40;3.97;;;;;;;;;;4966171;28;20062;-80
2023/01/12 01:34:14;;;;;;;8.23;5.13;;;;;;;;;;4974008;28;20082;-80
2023/01/12 01:36:41;;;;;;;5.72;3.75;;;;;;;;;;4964026;28;20061;-80
2023/01/12 01:39:09;;;;;;;5.47;2.78;;;;;;;;;;4963134;28;20045;-79
2023/01/12 01:41:36;;;;;;;4.13;2.17;;;;;;;;;;4952878;28;20113;-80
2023/01/12 01:44:05;;;;;;;2.50;1.80;;;;;;;;;;4962963;28;20113;-80
2023/01/12 01:46:38;;;;;;;5.60;1.83;;;;;;;;;;4956911;28;20282;-79
2023/01/12 01:49:10;;;;;;;6.65;1.70;;;;;;;;;;4934957;28;20639;-80
2023/01/12 01:51:37;;;;;;;21.60;16.55;;;;;;;;;;4966060;28;20053;-80
2023/01/12 01:54:05;;;;;;;2.63;1.73;;;;;;;;;;4966972;28;20043;-80
2023/01/12 01:56:32;;;;;;;1.70;1.30;;;;;;;;;;4963714;28;20109;-80
2023/01/12 01:59:07;;;;;;;1.67;1.50;;;;;;;;;;4959964;28;20340;-79
2023/01/12 02:01:35;;;;;;;6.70;1.52;;;;;;;;;;4958482;28;20082;-79
2023/01/12 02:04:02;;;;;;;8.00;1.70;;;;;;;;;;4958371;28;20051;-80
2023/01/12 02:06:30;;;;;;;4.57;1.23;;;;;;;;;;4957293;28;20058;-80
2023/01/12 02:09:00;;;;;;;5.13;1.30;;;;;;;;;;4961177;28;20046;-81
2023/01/12 02:17:18;;;;;;;1.60;1.10;;;;;;;;;;4958213;28;20043;-79
2023/01/12 02:19:46;;;;;;;3.22;1.20;;;;;;;;;;4962673;28;20120;-80
2023/01/12 02:22:13;;;;;;;2.05;1.17;;;;;;;;;;4960879;28;20042;-80
2023/01/12 02:24:43;;;;;;;4.82;1.15;;;;;;;;;;4962085;28;20127;-80
2023/01/12 02:27:23;;;;;;;5.35;1.27;;;;;;;;;;4959339;28;20101;-80
2023/01/12 02:30:12;;;;;;;2.60;1.63;;;;;;;;;;4961247;28;20572;-79
2023/01/12 02:32:47;;;;;;;5.30;2.00;;;;;;;;;;4957280;28;20721;-79
2023/01/12 02:35:20;;;;;;;6.63;2.25;;;;;;;;;;4961328;28;20051;-80
2023/01/12 02:37:53;;;;;;;4.97;2.25;;;;;;;;;;4956057;28;20050;-79
2023/01/12 02:40:25;;;;;;;6.55;2.33;;;;;;;;;;4956940;28;20105;-79
2023/01/12 02:43:03;;;;;;;7.65;1.75;;;;;;;;;;4959275;28;20060;-80
2023/01/12 02:45:33;;;;;;;2.70;1.30;;;;;;;;;;4956957;28;20137;-79
2023/01/12 02:48:20;;;;;;;2.28;1.42;;;;;;;;;;4967884;28;20635;-79
2023/01/12 02:50:54;;;;;;;3.45;1.25;;;;;;;;;;4968715;28;20066;-79
2023/01/12 02:53:24;;;;;;;1.48;1.00;;;;;;;;;;4963241;28;20054;-80
2023/01/12 02:55:52;;;;;;;5.65;2.30;;;;;;;;;;4967729;28;20058;-80
2023/01/12 02:58:21;;;;;;;2.83;1.55;;;;;;;;;;4966458;28;20162;-79
2023/01/12 03:00:50;;;;;;;6.35;1.67;;;;;;;;;;4964043;28;20078;-80
2023/01/12 03:03:18;;;;;;;2.03;1.60;;;;;;;;;;4963244;28;20042;-80
2023/01/12 03:05:46;;;;;;;2.03;1.25;;;;;;;;;;4965249;28;20057;-79
2023/01/12 03:08:23;;;;;;;2.20;1.20;;;;;;;;;;4967245;28;20039;-80
2023/01/12 03:11:06;;;;;;;7.53;1.20;;;;;;;;;;4967738;28;20512;-80
2023/01/12 03:13:35;;;;;;;4.18;1.50;;;;;;;;;;4966113;28;20084;-80
2023/01/12 03:16:04;;;;;;;1.48;1.10;;;;;;;;;;4964839;28;20130;-80
2023/01/12 03:18:48;;;;;;;3.20;1.85;;;;;;;;;;4965390;28;20054;-79
2023/01/12 03:21:20;;;;;;;2.63;1.73;;;;;;;;;;4965519;28;20058;-80
2023/01/12 03:23:48;;;;;;;;;;;;;;;;;;4951130;28;20043;-80
2023/01/12 03:26:17;;;;;;;1.38;1.30;;;;;;;;;;4964902;28;19926;-79
2023/01/12 03:28:46;;;;;;;2.50;2.28;;;;;;;;;;4959875;28;20091;-79
2023/01/12 03:31:14;;;;;;;7.07;2.17;;;;;;;;;;4960428;28;20039;-80
2023/01/12 03:33:42;;;;;;;3.75;1.73;;;;;;;;;;4961455;28;20138;-80
2023/01/12 03:36:10;;;;;;;4.80;1.80;;;;;;;;;;4961600;28;20047;-79
2023/01/12 03:38:50;;;;;;;5.28;1.95;;;;;;;;;;4961982;28;20130;-79
2023/01/12 03:41:26;;;;;;;8.13;1.80;;;;;;;;;;4949105;28;20062;-80
2023/01/12 03:43:57;;;;;;;3.63;1.45;;;;;;;;;;4966143;28;20101;-80
2023/01/12 03:46:27;;;;;;;3.10;1.60;;;;;;;;;;4969117;28;20059;-80
2023/01/12 03:48:57;;;;;;;2.50;1.58;;;;;;;;;;4971339;28;20078;-79
2023/01/12 03:51:26;;;;;;;1.60;1.50;;;;;;;;;;4971411;28;20086;-80
2023/01/12 03:53:56;;;;;;;4.43;1.65;;;;;;;;;;4974645;28;20050;-79
2023/01/12 03:56:25;;;;;;;3.42;1.40;;;;;;;;;;4972126;28;20047;-79
2023/01/12 03:58:52;;;;;;;3.45;1.80;;;;;;;;;;4966998;28;20101;-79
2023/01/12 04:01:20;;;;;;;4.20;1.48;;;;;;;;;;4962346;28;20134;-80
2023/01/12 04:03:47;;;;;;;2.70;1.73;;;;;;;;;;4968614;28;20050;-79
2023/01/12 04:06:14;;;;;;;4.30;1.90;;;;;;;;;;4961907;28;20071;-79
2023/01/12 04:08:42;;;;;;;3.25;1.75;;;;;;;;;;4963782;28;20061;-80
2023/01/12 04:13:55;;;;;;;5.28;1.60;;;;;;;;;;4969104;28;20047;-79
2023/01/12 04:16:23;;;;;;;3.20;1.67;;;;;;;;;;4961753;28;20054;-80
2023/01/12 04:18:50;;;;;;;4.88;1.90;;;;;;;;;;4962245;28;20169;-80
2023/01/12 04:24:03;;;;;;;7.95;2.10;;;;;;;;;;4964121;28;20049;-80
2023/01/12 04:26:31;;;;;;;3.22;2.10;;;;;;;;;;4964282;28;20109;-79
2023/01/12 04:28:58;;;;;;;4.13;2.05;;;;;;;;;;4963443;28;20071;-79
2023/01/12 04:31:25;;;;;;;2.47;2.17;;;;;;;;;;4951662;28;20042;-80
2023/01/12 04:33:53;;;;;;;2.38;2.17;;;;;;;;;;4959674;28;20126;-79
2023/01/12 04:36:20;;;;;;;5.57;2.30;;;;;;;;;;4969448;28;20047;-79
2023/01/12 04:38:48;;;;;;;3.90;2.33;;;;;;;;;;4970537;28;20505;-80
2023/01/12 04:41:15;;;;;;;4.03;2.30;;;;;;;;;;4968472;28;20065;-80
2023/01/12 04:43:42;;;;;;;3.05;2.10;;;;;;;;;;4956698;28;20098;-80
2023/01/12 04:46:10;;;;;;;2.17;2.05;;;;;;;;;;4957485;28;20492;-80
2023/01/12 04:48:39;;;;;;;4.53;1.90;;;;;;;;;;4962661;28;20109;-80
2023/01/12 04:51:06;;;;;;;3.47;1.95;;;;;;;;;;4960359;28;20042;-80
2023/01/12 04:53:34;;;;;;;2.45;1.98;;;;;;;;;;4967068;28;20050;-80
2023/01/12 04:56:05;;;;;;;3.55;2.10;;;;;;;;;;4966032;28;20043;-80
2023/01/12 04:58:33;;;;;;;4.85;2.28;;;;;;;;;;4963310;28;20410;-80
2023/01/12 05:01:11;;;;;;;2.75;1.98;;;;;;;;;;4947533;28;20049;-80
2023/01/12 05:03:38;;;;;;;7.88;2.15;;;;;;;;;;4959439;28;20059;-80
2023/01/12 05:06:06;;;;;;;4.53;2.25;;;;;;;;;;4965135;28;20118;-80
2023/01/12 05:11:30;;;;;;;;;;;;;;;;;;;;;
2023/01/12 05:14:05;;;;;;;5.18;2.60;;;;;;;;;;4967700;28;20375;-79
2023/01/12 05:16:32;;;;;;;5.00;2.60;;;;;;;;;;4964394;28;20057;-80
2023/01/12 05:18:59;;;;;;;3.60;2.03;;;;;;;;;;4970800;28;20089;-80
2023/01/12 05:21:27;;;;;;;4.43;1.98;;;;;;;;;;4963543;28;20153;-79
2023/01/12 05:23:54;;;;;;;2.45;2.25;;;;;;;;;;4969472;28;20070;-81
2023/01/12 05:26:21;;;;;;;3.60;2.10;;;;;;;;;;4952015;28;20039;-80
2023/01/12 05:28:50;;;;;;;7.00;2.85;;;;;;;;;;4962660;28;20055;-80
2023/01/12 05:31:18;;;;;;;4.15;2.60;;;;;;;;;;4962121;28;20063;-80
2023/01/12 05:33:46;;;;;;;5.88;2.45;;;;;;;;;;4960251;28;20047;-81
2023/01/12 05:36:14;;;;;;;5.93;2.60;;;;;;;;;;4921109;28;20093;-81
2023/01/12 05:38:41;;;;;;;3.72;2.53;;;;;;;;;;4920773;28;20354;-81
2023/01/12 05:41:13;;;;;;;3.50;2.25;;;;;;;;;;4935738;28;20177;-80
2023/01/12 05:43:51;;;;;;;2.63;2.40;;;;;;;;;;4927439;28;20046;-81
2023/01/12 05:46:26;;;;;;;5.30;2.75;;;;;;;;;;4936924;28;20047;-80
2023/01/12 05:48:55;;;;;;;3.60;2.30;;;;;;;;;;4932237;28;20042;-81
2023/01/12 05:51:23;;;;;;;5.00;2.70;;;;;;;;;;4937993;28;20055;-80
2023/01/12 05:53:51;;;;;;;3.10;2.70;;;;;;;;;;4935370;28;20149;-80
2023/01/12 05:56:19;;;;;;;3.25;2.35;;;;;;;;;;4948265;28;20039;-80
2023/01/12 05:58:51;;;;;;;2.67;2.40;;;;;;;;;;4964915;28;20054;-81
2023/01/12 06:01:19;;;;;;;3.70;2.40;;;;;;;;;;4972779;28;20132;-80
2023/01/12 06:03:54;;;;;;;6.45;2.63;;;;;;;;;;4974249;28;20425;-82
2023/01/12 06:06:22;;;;;;;5.35;2.10;;;;;;;;;;4955806;28;20497;-81
2023/01/12 06:08:51;;;;;;;5.35;2.50;;;;;;;;;;4964756;28;20057;-80
2023/01/12 06:14:06;;;;;;;6.35;2.35;;;;;;;;;;4960648;28;20083;-80
2023/01/12 06:16:36;;;;;;;2.65;2.10;;;;;;;;;;4958336;28;20401;-80
2023/01/12 06:19:03;;;;;;;2.35;2.13;;;;;;;;;;4956661;28;20055;-81
2023/01/12 06:21:31;;;;;;;6.35;3.00;;;;;;;;;;4960062;28;20417;-81
2023/01/12 06:23:59;;;;;;;10.98;3.05;;;;;;;;;;4955385;28;20513;-81
2023/01/12 06:26:27;;;;;;;5.80;2.63;;;;;;;;;;4936752;28;20097;-81
2023/01/12 06:28:54;;;;;;;3.60;2.53;;;;;;;;;;4958553;28;20051;-80
2023/01/12 06:31:22;;;;;;;5.28;2.75;;;;;;;;;;4958956;28;20432;-80
2023/01/12 06:33:49;;;;;;;6.03;2.97;;;;;;;;;;4961795;28;20053;-80
2023/01/12 06:36:16;;;;;;;5.35;3.35;;;;;;;;;;4964826;28;20792;-81
2023/01/12 06:38:44;;;;;;;6.10;3.40;;;;;;;;;;4959515;28;20504;-81
2023/01/12 06:43:58;;;;;;;9.48;3.47;;;;;;;;;;4959362;28;20631;-81
2023/01/12 06:46:26;;;;;;;5.93;3.83;;;;;;;;;;4953839;28;20431;-80
2023/01/12 06:48:55;;;;;;;4.78;3.80;;;;;;;;;;4950295;28;20074;-80
2023/01/12 06:51:22;;;;;;;6.13;3.40;;;;;;;;;;4956986;28;20377;-81
2023/01/12 06:53:49;;;;;;;4.75;3.33;;;;;;;;;;4936600;28;20057;-81
2023/01/12 06:56:17;;;;;;;3.97;3.53;;;;;;;;;;4959015;28;20310;-78
2023/01/12 06:58:44;;;;;;;4.63;3.30;;;;;;;;;;4944390;28;20058;-81
2023/01/12 07:01:12;;;;;;;5.80;2.90;;;;;;;;;;4957121;28;20055;-79
2023/01/12 07:03:40;;;;;;;6.72;4.25;;;;;;;;;;4968340;23;20376;-82
2023/01/12 07:06:07;;;;;;;4.00;2.85;;;;;;;;;;4975985;28;20444;-82
2023/01/12 07:08:35;;;;;;;7.28;2.88;;;;;;;;;;4980378;28;20046;-82
2023/01/12 07:11:03;;;;;;;6.45;3.10;;;;;;;;;;4976939;28;20046;-83
2023/01/12 07:13:31;;;;;;;4.95;3.60;;;;;;;;;;4979281;28;20058;-83
2023/01/12 07:15:59;;;;;;;6.57;2.83;;;;;;;;;;4979631;28;20493;-83
2023/01/12 07:18:28;;;;;;;5.95;3.40;;;;;;;;;;4982571;28;20514;-83
2023/01/12 07:20:55;;;;;;;6.28;3.53;;;;;;;;;;4977579;28;20493;-83
2023/01/12 07:23:22;;;;;;;4.97;2.70;;;;;;;;;;4978997;28;20064;-83
2023/01/12 07:25:50;;;;;;;5.50;3.05;;;;;;;;;;4984374;28;20424;-82
2023/01/12 07:28:17;;;;;;;4.88;3.03;;;;;;;;;;4984983;28;20208;-83
2023/01/12 07:30:45;;;;;;;6.63;3.25;;;;;;;;;;4979053;28;20039;-82
2023/01/12 07:33:13;;;;;;;3.85;3.00;;;;;;;;;;4986352;28;20151;-83
2023/01/12 07:35:43;;;;;;;4.93;3.00;;;;;;;;;;4966628;28;20061;-82
2023/01/12 07:38:11;;;;;;;4.95;3.00;;;;;;;;;;4974661;28;20119;-82
2023/01/12 07:40:38;;;;;;;7.18;3.95;;;;;;;;;;4979513;28;20062;-82
2023/01/12 07:43:06;;;;;;;19.45;12.40;;;;;;;;;;4977676;28;20050;-82
2023/01/12 07:45:35;;;;;;;10.23;6.93;;;;;;;;;;4979249;28;20050;-83
2023/01/12 07:48:03;;;;;;;13.23;6.78;;;;;;;;;;4983569;28;20102;-83
2023/01/12 07:50:30;;;;;;;11.38;9.07;;;;;;;;;;4979853;28;20077;-83
2023/01/12 07:53:01;;;;;;;10.15;6.28;;;;;;;;;;4983837;28;20050;-82
2023/01/12 07:55:29;;;;;;;6.72;6.03;;;;;;;;;;4967508;28;20130;-82
2023/01/12 07:57:58;;;;;;;5.97;4.55;;;;;;;;;;4982830;28;20054;-82
2023/01/12 08:00:26;;;;;;;11.00;9.55;;;;;;;;;;4985295;28;20110;-83
2023/01/12 08:02:54;;;;;;;7.78;4.05;;;;;;;;;;4981753;28;20046;-82
2023/01/12 08:05:22;;;;;;;8.40;4.93;;;;;;;;;;4985940;28;20430;-83
2023/01/12 08:07:50;;;;;;;7.72;4.82;;;;;;;;;;4983033;28;20096;-83
2023/01/12 08:10:18;;;;;;;7.35;5.38;;;;;;;;;;4978182;28;20043;-82
2023/01/12 08:12:45;;;;;;;6.63;5.03;;;;;;;;;;4979695;28;20054;-83
2023/01/12 08:15:12;;;;;;;5.85;4.65;;;;;;;;;;4974824;28;20054;-82
2023/01/12 08:17:43;;;;;;;7.22;4.05;;;;;;;;;;4981800;28;20587;-83
2023/01/12 08:20:15;;;;;;;6.07;4.00;;;;;;;;;;4961807;28;20404;-83
2023/01/12 08:22:45;;;;;;;7.32;3.90;;;;;;;;;;4978166;28;20046;-82
2023/01/12 08:25:14;;;;;;;6.15;3.72;;;;;;;;;;4963260;28;20142;-83
2023/01/12 08:27:44;;;;;;;7.40;3.75;;;;;;;;;;4983158;28;20054;-82
2023/01/12 08:30:14;;;;;;;6.50;3.33;;;;;;;;;;4971461;28;20057;-83
2023/01/12 08:32:42;;;;;;;5.05;3.55;;;;;;;;;;4984991;28;20042;-82
2023/01/12 08:35:11;;;;;;;5.57;3.47;;;;;;;;;;4975265;28;20073;-82
2023/01/12 08:37:39;;;;;;;4.97;3.85;;;;;;;;;;4988460;28;20460;-82
2023/01/12 08:40:07;;;;;;;5.70;3.53;;;;;;;;;;4992222;28;20052;-82
2023/01/12 08:42:34;;;;;;;3.42;3.03;;;;;;;;;;4986584;28;20070;-82
2023/01/12 08:45:02;;;;;;;6.30;3.20;;;;;;;;;;4972407;28;20288;-83
2023/01/12 08:47:29;;;;;;;6.55;3.28;;;;;;;;;;4998170;28;20133;-82
2023/01/12 08:50:01;;;;;;;5.20;3.58;;;;;;;;;;5007379;28;20047;-82
2023/01/12 08:52:30;;;;;;;5.55;3.33;;;;;;;;;;5006142;28;20046;-82
2023/01/12 08:54:58;;;;;;;6.70;3.30;;;;;;;;;;4992821;28;20054;-82
2023/01/12 08:57:25;;;;;;;6.00;3.30;;;;;;;;;;4994255;28;20050;-82
2023/01/12 08:59:52;;;;;;;6.13;3.67;;;;;;;;;;4987899;28;20534;-82
2023/01/12 09:02:20;;;;;;;3.60;3.30;;;;;;;;;;4988821;28;20129;-82
2023/01/12 09:04:48;;;;;;;7.68;3.95;;;;;;;;;;4972597;28;20505;-82
2023/01/12 09:07:15;;;;;;;9.65;3.90;;;;;;;;;;4993224;28;20044;-82
2023/01/12 09:09:43;;;;;;;7.63;3.70;;;;;;;;;;4992195;28;20042;-82
2023/01/12 09:12:10;;;;;;;5.07;3.17;;;;;;;;;;4982589;28;20165;-82
2023/01/12 09:14:37;;;;;;;5.15;2.58;;;;;;;;;;4969073;28;20058;-82
2023/01/12 09:17:06;;;;;;;3.05;2.17;;;;;;;;;;4983373;28;20457;-82
2023/01/12 09:19:34;;;;;;;3.75;2.40;;;;;;;;;;4991309;28;20137;-82
2023/01/12 09:22:01;;;;;;;3.05;1.95;;;;;;;;;;4991037;28;20054;-82
2023/01/12 09:24:29;;;;;;;5.90;2.00;;;;;;;;;;4992331;28;20252;-82
2023/01/12 09:26:56;;;;;;;3.85;1.70;;;;;;;;;;4983236;28;20053;-82
2023/01/12 09:29:23;;;;;;;3.17;1.67;;;;;;;;;;4986458;28;20038;-82
2023/01/12 09:31:51;;;;;;;7.05;1.70;;;;;;;;;;4990160;28;20137;-82
2023/01/12 09:34:18;;;;;;;4.10;2.30;;;;;;;;;;4993409;28;20046;-82
2023/01/12 09:36:47;;;;;;;4.97;1.67;;;;;;;;;;4992034;28;20058;-82
2023/01/12 09:39:15;;;;;;;3.15;1.33;;;;;;;;;;4994860;28;20112;-82
2023/01/12 09:47:47;;;;;;;3.30;1.40;;;;;;;;;;4984166;28;20133;-82
2023/01/12 09:50:19;;;;;;;2.60;2.40;;;;;;;;;;4984321;28;20492;-81
2023/01/12 09:52:46;;;;;;;;;;;;;;;;;;4987453;28;20042;-81
2023/01/12 09:55:19;;;;;;;2.47;1.50;;;;;;;;;;4963571;28;19926;-81
2023/01/12 09:57:49;;;;;;;2.50;1.38;;;;;;;;;;4983784;28;20520;-81
2023/01/12 10:00:17;;;;;;;6.38;1.30;;;;;;;;;;4970574;28;20125;-81
2023/01/12 10:02:47;;;;;;;1.52;1.33;;;;;;;;;;4987032;28;20050;-81
2023/01/12 10:05:22;;;;;;;4.15;1.50;;;;;;;;;;4987724;28;20046;-82
2023/01/12 10:07:57;;;;;;;3.20;1.55;;;;;;;;;;4987599;28;20046;-81
2023/01/12 10:10:25;;;;;;;4.60;1.67;;;;;;;;;;4983371;28;20050;-82
2023/01/12 10:12:55;;;;;;;3.15;1.70;;;;;;;;;;4989348;28;20074;-81
2023/01/12 10:15:47;;;;;;;4.82;1.90;;;;;;;;;;4967945;28;20051;-81
2023/01/12 10:18:24;;;;;;;2.33;1.02;;;;;;;;;;4984497;28;20121;-81
2023/01/12 10:20:52;;;;;;;3.30;1.48;;;;;;;;;;4986085;28;20057;-82
2023/01/12 10:23:23;;;;;;;3.70;1.70;;;;;;;;;;4980882;28;20051;-81
2023/01/12 10:26:00;;;;;;;1.70;1.45;;;;;;;;;;4979390;28;20054;-82
2023/01/12 10:28:32;;;;;;;2.42;1.27;;;;;;;;;;4981819;28;20120;-81
2023/01/12 10:31:00;;;;;;;4.13;1.30;;;;;;;;;;4982314;28;20046;-82
2023/01/12 10:33:31;;;;;;;2.50;1.23;;;;;;;;;;4989005;28;20045;-81
2023/01/12 10:36:18;;;;;;;4.80;1.60;;;;;;;;;;4991059;28;20050;-82
2023/01/12 10:38:52;;;;;;;3.55;1.42;;;;;;;;;;4997385;28;20105;-82
2023/01/12 10:41:20;;;;;;;2.88;1.38;;;;;;;;;;5006879;28;20052;-81
2023/01/12 10:43:59;;;;;;;1.90;1.33;;;;;;;;;;4990633;28;20053;-82
2023/01/12 10:46:30;;;;;;;8.27;1.88;;;;;;;;;;4982100;28;20053;-82
2023/01/12 10:49:17;;;;;;;4.10;1.35;;;;;;;;;;4987804;28;20053;-82
2023/01/12 10:51:52;;;;;;;4.60;1.77;;;;;;;;;;4983081;28;20043;-82
2023/01/12 10:54:25;;;;;;;3.25;1.60;;;;;;;;;;4984054;28;20070;-82
2023/01/12 10:56:57;;;;;;;7.38;1.80;;;;;;;;;;4990113;28;20081;-82
2023/01/12 10:59:32;;;;;;;3.13;1.73;;;;;;;;;;4989865;28;21015;-82
2023/01/12 11:02:12;;;;;;;4.07;2.10;;;;;;;;;;4977802;28;20485;-83
2023/01/12 11:04:40;;;;;;;6.32;2.20;;;;;;;;;;4996294;28;20367;-81
2023/01/12 11:07:13;;;;;;;4.65;1.98;;;;;;;;;;4979740;28;20070;-82
2023/01/12 11:09:41;;;;;;;3.17;1.63;;;;;;;;;;4980335;28;20054;-82
2023/01/12 11:12:23;;;;;;;3.13;1.90;;;;;;;;;;4991894;28;20050;-82
2023/01/12 11:15:01;;;;;;;3.28;1.92;;;;;;;;;;4996616;28;20057;-82
2023/01/12 11:17:46;;;;;;;3.38;1.33;;;;;;;;;;4976734;28;20038;-82
2023/01/12 11:20:16;;;;;;;5.75;1.85;;;;;;;;;;4985672;28;20065;-83
2023/01/12 11:22:44;;;;;;;4.43;1.75;;;;;;;;;;4976302;28;20066;-83
2023/01/12 11:25:14;;;;;;;4.50;1.75;;;;;;;;;;4973356;28;20073;-83
2023/01/12 11:27:47;;;;;;;1.75;1.65;;;;;;;;;;4972329;28;20050;-83
2023/01/12 11:30:20;;;;;;;3.05;1.73;;;;;;;;;;4988253;28;20385;-83
2023/01/12 11:32:48;;;;;;;6.15;4.32;;;;;;;;;;4967440;28;20661;-83
2023/01/12 11:35:24;;;;;;;9.05;4.43;;;;;;;;;;4976623;28;20043;-83
2023/01/12 11:37:54;;;;;;;4.32;3.00;;;;;;;;;;4995002;28;20416;-83
2023/01/12 11:40:27;;;;;;;4.97;2.63;;;;;;;;;;4976569;28;20419;-83
2023/01/12 11:45:45;;;;;;;5.32;2.60;;;;;;;;;;4982680;28;20050;-83
2023/01/12 11:48:25;;;;;;;3.85;2.15;;;;;;;;;;4975239;28;20121;-83
2023/01/12 11:50:53;;;;;;;4.90;2.85;;;;;;;;;;4994880;28;20065;-83
2023/01/12 11:53:22;;;;;;;3.70;2.70;;;;;;;;;;4997455;28;20046;-83
2023/01/12 11:55:55;;;;;;;5.15;2.40;;;;;;;;;;4994007;28;20061;-83
2023/01/12 11:58:26;;;;;;;2.58;1.80;;;;;;;;;;4994591;28;20043;-83
2023/01/12 12:00:59;;;;;;;4.43;1.58;;;;;;;;;;4991290;28;20129;-83
2023/01/12 12:03:38;;;;;;;4.25;1.52;;;;;;;;;;4979484;28;20042;-83
2023/01/12 12:06:17;;;;;;;1.83;1.35;;;;;;;;;;4989162;28;20259;-83
2023/01/12 12:08:47;;;;;;;7.25;2.03;;;;;;;;;;4990882;28;20059;-83
2023/01/12 12:11:19;;;;;;;2.28;1.38;;;;;;;;;;4987678;28;20049;-84
2023/01/12 12:13:55;;;;;;;5.93;2.10;;;;;;;;;;4976465;28;20129;-83
2023/01/12 12:16:31;;;;;;;3.63;1.95;;;;;;;;;;4986833;28;20050;-83
2023/01/12 12:19:10;;;;;;;5.90;2.88;;;;;;;;;;4973255;28;20420;-83
2023/01/12 12:21:38;;;;;;;6.35;2.30;;;;;;;;;;4985570;28;21212;-82
2023/01/12 12:24:24;;;;;;;7.60;2.53;;;;;;;;;;4972417;28;20057;-82
2023/01/12 12:26:55;;;;;;;5.57;2.20;;;;;;;;;;4985004;28;20497;-82
2023/01/12 12:29:30;;;;;;;21.02;10.55;;;;;;;;;;4975002;28;20054;-84
2023/01/12 12:32:10;;;;;;;8.38;3.95;;;;;;;;;;4974944;28;20077;-83
2023/01/12 12:34:40;;;;;;;3.90;1.90;;;;;;;;;;4998685;28;20142;-84
2023/01/12 12:37:26;;;;;;;5.60;1.85;;;;;;;;;;4970746;28;20046;-81
2023/01/12 12:40:03;;;;;;;6.10;1.85;;;;;;;;;;4973078;28;20082;-82
2023/01/12 12:45:35;;;;;;;6.18;1.83;;;;;;;;;;4994185;28;20120;-83
2023/01/12 12:48:04;;;;;;;3.30;1.85;;;;;;;;;;4972138;28;20074;-82
2023/01/12 12:50:44;;;;;;;5.78;1.50;;;;;;;;;;4979658;28;20074;-83
2023/01/12 12:53:32;;;;;;;1.55;1.40;;;;;;;;;;4982196;28;20110;-83
2023/01/12 12:56:04;;;;;;;3.03;1.10;;;;;;;;;;4982364;28;20050;-83
2023/01/12 12:58:51;;;;;;;4.57;1.60;;;;;;;;;;4970306;28;20532;-83
2023/01/12 13:01:28;;;;;;;3.38;1.52;;;;;;;;;;4976653;28;20587;-82
2023/01/12 13:03:57;;;;;;;4.00;1.80;;;;;;;;;;4987749;23;20093;-80
2023/01/12 13:06:32;;;;;;;2.55;1.25;;;;;;;;;;4989557;28;20042;-81
2023/01/12 13:09:24;;;;;;;1.38;1.20;;;;;;;;;;4990453;28;20054;-81
2023/01/12 13:12:09;;;;;;;2.92;1.20;;;;;;;;;;4971625;28;20034;-80
2023/01/12 13:14:38;;;;;;;3.25;1.23;;;;;;;;;;4989088;28;20069;-81
2023/01/12 13:17:17;;;;;;;2.80;1.60;;;;;;;;;;4990478;28;20065;-80
2023/01/12 13:19:49;;;;;;;2.15;1.30;;;;;;;;;;4992259;28;20125;-80
2023/01/12 13:22:26;;;;;;;3.53;1.20;;;;;;;;;;4975737;28;20054;-80
2023/01/12 13:24:58;;;;;;;1.50;1.15;;;;;;;;;;4992443;28;20077;-80
2023/01/12 13:27:44;;;;;;;4.00;1.70;;;;;;;;;;4995815;28;20074;-81
2023/01/12 13:30:30;;;;;;;1.63;1.35;;;;;;;;;;4993854;28;20096;-80
2023/01/12 13:33:16;;;;;;;3.58;1.90;;;;;;;;;;4992499;28;20473;-80
2023/01/12 13:35:45;;;;;;;5.50;1.83;;;;;;;;;;4992827;28;20039;-80
2023/01/12 13:38:32;;;;;;;4.32;2.10;;;;;;;;;;4993333;28;20488;-80
2023/01/12 13:44:13;;;;;;;3.53;1.33;;;;;;;;;;4971321;28;20053;-80
2023/01/12 13:46:40;;;;;;;1.63;1.50;;;;;;;;;;4992405;28;20158;-80
2023/01/12 13:49:37;;;;;;;2.20;1.17;;;;;;;;;;4992138;28;20059;-80
2023/01/12 13:52:06;;;;;;;2.65;1.80;;;;;;;;;;4979081;28;20120;-80
2023/01/12 13:54:34;;;;;;;1.77;1.20;;;;;;;;;;4991925;28;20048;-80
2023/01/12 13:57:09;;;;;;;2.15;1.52;;;;;;;;;;4974021;28;20046;-80
2023/01/12 13:59:37;;;;;;;2.28;1.20;;;;;;;;;;4991001;28;20050;-80
2023/01/12 14:02:16;;;;;;;2.92;1.65;;;;;;;;;;4994024;28;20043;-81
2023/01/12 14:04:54;;;;;;;3.92;1.58;;;;;;;;;;5002129;28;20083;-81
2023/01/12 14:07:28;;;;;;;6.25;1.58;;;;;;;;;;5001069;28;20069;-81
2023/01/12 14:09:55;;;;;;;4.53;0.90;;;;;;;;;;4992616;28;20081;-81
2023/01/12 14:12:23;;;;;;;3.75;1.20;;;;;;;;;;4991521;28;20050;-80
2023/01/12 14:18:05;;;;;;;1.85;1.00;;;;;;;;;;4991065;28;20054;-81
2023/01/12 14:20:39;;;;;;;2.45;1.15;;;;;;;;;;4991337;28;20054;-80
2023/01/12 14:23:13;;;;;;;1.55;1.13;;;;;;;;;;4991490;28;20092;-80
2023/01/12 14:25:41;;;;;;;2.35;1.20;;;;;;;;;;4990245;28;20471;-80
2023/01/12 14:28:16;;;;;;;6.35;1.23;;;;;;;;;;4990810;28;20054;-80
2023/01/12 14:30:45;;;;;;;1.83;1.25;;;;;;;;;;4990190;28;20472;-80
2023/01/12 14:33:16;;;;;;;2.80;1.42;;;;;;;;;;4992294;28;20419;-81
2023/01/12 14:35:45;;;;;;;1.45;1.35;;;;;;;;;;4960643;28;20058;-81
2023/01/12 14:38:14;;;;;;;3.90;1.58;;;;;;;;;;4991257;28;20136;-80
2023/01/12 14:40:53;;;;;;;4.85;1.45;;;;;;;;;;4988147;28;20046;-80
2023/01/12 14:46:24;;;;;;;1.95;1.65;;;;;;;;;;4991182;28;20097;-80
2023/01/12 14:48:55;;;;;;;1.50;1.40;;;;;;;;;;4973593;28;20046;-80
2023/01/12 14:51:28;;;;;;;1.60;1.40;;;;;;;;;;4991110;28;20105;-81
2023/01/12 14:54:16;;;;;;;1.80;1.17;;;;;;;;;;4978334;28;20062;-81
2023/01/12 14:56:55;;;;;;;2.08;1.70;;;;;;;;;;4994342;28;20046;-80
2023/01/12 14:59:24;;;;;;;1.88;1.50;;;;;;;;;;4995793;28;20054;-81
2023/01/12 15:01:52;;;;;;;3.10;1.70;;;;;;;;;;4992534;28;20081;-81
2023/01/12 15:04:21;;;;;;;3.30;1.50;;;;;;;;;;4990377;28;20552;-80
2023/01/12 15:06:59;;;;;;;2.75;1.55;;;;;;;;;;4990081;28;20058;-81
2023/01/12 15:09:35;;;;;;;2.72;1.75;;;;;;;;;;4973153;28;20054;-80
2023/01/12 15:12:35;;;;;;;3.55;1.75;;;;;;;;;;4990505;28;20558;-80
2023/01/12 15:15:14;;;;;;;5.20;2.08;;;;;;;;;;4968223;28;20405;-80
2023/01/12 15:26:01;;;;;;;5.22;2.72;;;;;;;;;;4991462;28;20053;-80
2023/01/12 15:28:29;;;;;;;3.42;2.70;;;;;;;;;;4999970;28;20106;-80
2023/01/12 15:30:56;;;;;;;6.35;4.20;;;;;;;;;;4983398;28;20050;-80
2023/01/12 15:33:23;;;;;;;22.60;10.18;;;;;;;;;;4993501;28;20062;-80
2023/01/12 15:35:51;;;;;;;20.20;8.43;;;;;;;;;;4990338;28;20084;-80
2023/01/12 15:38:19;;;;;;;15.63;7.75;;;;;;;;;;4990104;28;20042;-80
2023/01/12 15:40:47;;;;;;;11.15;6.97;;;;;;;;;;4973719;28;20062;-80
2023/01/12 15:43:15;;;;;;;7.15;4.63;;;;;;;;;;4993069;28;20539;-80
2023/01/12 15:45:44;;;;;;;8.10;4.03;;;;;;;;;;4994964;28;20050;-81
2023/01/12 15:48:13;;;;;;;10.43;5.70;;;;;;;;;;4994252;28;20073;-81
2023/01/12 15:50:42;;;;;;;7.45;4.93;;;;;;;;;;4993402;28;20145;-81
2023/01/12 15:53:17;;;;;;;5.78;3.90;;;;;;;;;;4975936;28;20137;-81
2023/01/12 15:55:45;;;;;;;6.57;4.65;;;;;;;;;;4991884;28;20046;-80
2023/01/12 15:58:13;;;;;;;6.72;5.00;;;;;;;;;;4993790;28;20061;-80
2023/01/12 16:00:42;;;;;;;11.05;6.35;;;;;;;;;;4994537;28;20046;-81
2023/01/12 16:03:10;;;;;;;7.63;5.32;;;;;;;;;;4992644;28;20105;-79